createdAt,value
2019-05-06T00:00:56.468Z,82.32
2019-05-06T00:01:53.973Z,82.04
2019-05-06T00:02:54.485Z,81.66
2019-05-06T00:03:54.168Z,81.85
2019-05-06T00:04:54.181Z,81.75
2019-05-06T00:05:54.364Z,81.27
2019-05-06T00:06:54.796Z,80.71
2019-05-06T00:07:54.415Z,80.99
2019-05-06T00:08:54.607Z,81.56
2019-05-06T00:09:53.851Z,81.09
2019-05-06T00:10:54.265Z,81.56
2019-05-06T00:11:54.289Z,81.47
2019-05-06T00:12:53.621Z,81.18
2019-05-06T00:13:54.354Z,81.75
2019-05-06T00:14:54.177Z,81.56
2019-05-06T00:15:54.421Z,81.56
2019-05-06T00:16:55.105Z,81.75
2019-05-06T00:17:53.866Z,81.85
2019-05-06T00:18:54.010Z,81.47
2019-05-06T00:19:53.942Z,81.85
2019-05-06T00:20:57.224Z,81.09
2019-05-06T00:21:54.035Z,81.18
2019-05-06T00:22:54.616Z,81.47
2019-05-06T00:23:54.680Z,82.04
2019-05-06T00:24:54.718Z,82.23
2019-05-06T00:25:53.574Z,81.66
2019-05-06T00:26:56.895Z,81.66
2019-05-06T00:27:54.414Z,82.23
2019-05-06T00:28:53.962Z,82.32
2019-05-06T00:29:54.998Z,82.23
2019-05-06T00:30:58.560Z,82.42
2019-05-06T00:31:53.680Z,82.23
2019-05-06T00:32:53.907Z,81.94
2019-05-06T00:33:54.082Z,82.32
2019-05-06T00:34:54.642Z,81.94
2019-05-06T00:35:53.868Z,81.47
2019-05-06T00:36:54.519Z,81.66
2019-05-06T00:37:53.692Z,81.66
2019-05-06T00:38:53.938Z,81.85
2019-05-06T00:39:53.872Z,82.13
2019-05-06T00:40:54.372Z,82.42
2019-05-06T00:41:54.202Z,82.79
2019-05-06T00:42:54.228Z,83.36
2019-05-06T00:43:54.608Z,83.08
2019-05-06T00:44:53.769Z,83.32
2019-05-06T00:45:53.725Z,83.55
2019-05-06T00:46:54.557Z,83.80
2019-05-06T00:47:53.638Z,83.55
2019-05-06T00:48:54.269Z,83.36
2019-05-06T00:49:54.596Z,83.84
2019-05-06T00:50:53.655Z,83.42
2019-05-06T00:51:55.020Z,82.98
2019-05-06T00:52:53.991Z,83.13
2019-05-06T00:53:54.434Z,82.66
2019-05-06T00:54:54.698Z,82.23
2019-05-06T00:55:53.887Z,82.79
2019-05-06T00:56:54.119Z,82.04
2019-05-06T00:57:54.505Z,82.13
2019-05-06T00:58:54.479Z,81.75
2019-05-06T00:59:53.932Z,81.09
2019-05-06T01:00:54.000Z,81.09
2019-05-06T01:01:53.976Z,81.09
2019-05-06T01:02:54.308Z,80.90
2019-05-06T01:03:53.716Z,80.43
2019-05-06T01:04:54.138Z,80.52
2019-05-06T01:05:54.243Z,80.71
2019-05-06T01:06:54.465Z,80.43
2019-05-06T01:07:54.870Z,81.09
2019-05-06T01:08:54.446Z,81.09
2019-05-06T01:09:54.163Z,80.90
2019-05-06T01:10:54.469Z,80.24
2019-05-06T01:11:54.191Z,80.62
2019-05-06T01:12:54.401Z,80.62
2019-05-06T01:13:54.494Z,81.09
2019-05-06T01:14:54.549Z,80.99
2019-05-06T01:15:54.765Z,81.18
2019-05-06T01:16:54.799Z,80.71
2019-05-06T01:17:53.901Z,81.18
2019-05-06T01:18:54.155Z,81.09
2019-05-06T01:19:54.178Z,81.09
2019-05-06T01:20:54.094Z,81.05
2019-05-06T01:21:54.104Z,81.09
2019-05-06T01:22:54.405Z,81.33
2019-05-06T01:23:54.523Z,81.24
2019-05-06T01:24:55.718Z,80.76
2019-05-06T01:25:54.587Z,80.76
2019-05-06T01:26:53.832Z,81.05
2019-05-06T01:27:54.077Z,81.05
2019-05-06T01:28:54.554Z,81.05
2019-05-06T01:29:54.873Z,81.05
2019-05-06T01:30:53.686Z,81.24
2019-05-06T01:31:54.398Z,81.90
2019-05-06T01:32:54.355Z,81.99
2019-05-06T01:33:53.718Z,81.90
2019-05-06T01:34:53.864Z,81.99
2019-05-06T01:35:54.256Z,81.90
2019-05-06T01:36:54.527Z,81.62
2019-05-06T01:37:54.576Z,81.81
2019-05-06T01:38:53.736Z,81.05
2019-05-06T01:39:54.224Z,81.14
2019-05-06T01:40:54.655Z,81.90
2019-05-06T01:41:53.779Z,81.81
2019-05-06T01:42:54.156Z,81.81
2019-05-06T01:43:54.646Z,81.05
2019-05-06T01:44:53.975Z,80.95
2019-05-06T01:45:53.804Z,81.14
2019-05-06T01:46:54.212Z,81.33
2019-05-06T01:47:54.405Z,81.52
2019-05-06T01:48:53.797Z,81.33
2019-05-06T01:49:53.918Z,81.14
2019-05-06T01:50:54.076Z,81.43
2019-05-06T01:51:54.620Z,81.52
2019-05-06T01:52:54.119Z,81.33
2019-05-06T01:53:54.548Z,81.52
2019-05-06T01:54:54.232Z,82.09
2019-05-06T01:55:54.577Z,81.52
2019-05-06T01:56:53.858Z,80.57
2019-05-06T01:57:54.580Z,81.14
2019-05-06T01:58:53.829Z,81.43
2019-05-06T01:59:54.173Z,80.76
2019-05-06T02:00:54.383Z,81.05
2019-05-06T02:02:00.079Z,80.95
2019-05-06T02:02:54.735Z,81.14
2019-05-06T02:03:53.944Z,80.95
2019-05-06T02:04:54.239Z,81.24
2019-05-06T02:05:54.052Z,80.38
2019-05-06T02:06:54.611Z,80.67
2019-05-06T02:07:55.040Z,80.10
2019-05-06T02:08:54.144Z,80.38
2019-05-06T02:09:54.391Z,80.38
2019-05-06T02:10:54.509Z,80.38
2019-05-06T02:11:53.902Z,80.57
2019-05-06T02:12:54.186Z,80.57
2019-05-06T02:13:53.992Z,80.57
2019-05-06T02:14:54.322Z,80.38
2019-05-06T02:15:54.775Z,80.48
2019-05-06T02:16:54.621Z,80.19
2019-05-06T02:17:55.107Z,80.29
2019-05-06T02:18:54.166Z,80.57
2019-05-06T02:19:54.620Z,80.76
2019-05-06T02:20:53.946Z,81.14
2019-05-06T02:21:54.389Z,81.14
2019-05-06T02:22:53.955Z,81.01
2019-05-06T02:23:53.944Z,80.91
2019-05-06T02:24:53.948Z,81.01
2019-05-06T02:25:54.139Z,80.76
2019-05-06T02:26:54.396Z,80.86
2019-05-06T02:27:54.254Z,81.01
2019-05-06T02:28:54.535Z,81.20
2019-05-06T02:29:54.386Z,81.20
2019-05-06T02:30:54.826Z,80.76
2019-05-06T02:31:56.613Z,81.29
2019-05-06T02:32:55.634Z,81.33
2019-05-06T02:33:55.775Z,81.05
2019-05-06T02:34:54.750Z,80.86
2019-05-06T02:35:55.072Z,81.05
2019-05-06T02:36:55.120Z,80.95
2019-05-06T02:37:55.118Z,80.38
2019-05-06T02:38:55.635Z,79.34
2019-05-06T02:39:54.028Z,78.87
2019-05-06T02:40:54.024Z,78.87
2019-05-06T02:41:54.890Z,79.63
2019-05-06T02:42:55.029Z,79.44
2019-05-06T02:43:54.392Z,80.10
2019-05-06T02:44:54.559Z,80.48
2019-05-06T02:45:54.057Z,80.00
2019-05-06T02:46:54.054Z,80.10
2019-05-06T02:47:54.053Z,79.82
2019-05-06T02:48:54.449Z,79.82
2019-05-06T02:49:54.063Z,79.63
2019-05-06T02:50:54.076Z,80.00
2019-05-06T02:51:54.080Z,79.53
2019-05-06T02:52:54.088Z,79.63
2019-05-06T02:53:54.187Z,79.63
2019-05-06T02:54:54.093Z,79.72
2019-05-06T02:55:54.095Z,79.63
2019-05-06T02:56:54.101Z,79.39
2019-05-06T02:57:54.122Z,79.21
2019-05-06T02:58:54.112Z,79.58
2019-05-06T02:59:55.356Z,80.44
2019-05-06T03:00:54.209Z,79.87
2019-05-06T03:01:54.222Z,80.25
2019-05-06T03:02:54.451Z,80.44
2019-05-06T03:03:54.129Z,81.20
2019-05-06T03:04:54.140Z,80.91
2019-05-06T03:05:54.139Z,81.10
2019-05-06T03:06:54.147Z,81.01
2019-05-06T03:07:57.468Z,80.91
2019-05-06T03:08:54.547Z,81.20
2019-05-06T03:09:54.161Z,80.82
2019-05-06T03:10:54.167Z,80.53
2019-05-06T03:11:54.306Z,80.53
2019-05-06T03:12:54.174Z,80.63
2019-05-06T03:13:54.179Z,80.25
2019-05-06T03:14:54.181Z,80.34
2019-05-06T03:15:54.580Z,79.96
2019-05-06T03:16:54.287Z,80.44
2019-05-06T03:17:55.422Z,79.96
2019-05-06T03:18:54.200Z,80.44
2019-05-06T03:19:54.209Z,80.53
2019-05-06T03:20:54.227Z,80.53
2019-05-06T03:21:54.859Z,80.34
2019-05-06T03:22:54.600Z,80.34
2019-05-06T03:23:54.540Z,80.15
2019-05-06T03:24:54.706Z,80.44
2019-05-06T03:25:54.236Z,80.34
2019-05-06T03:26:56.829Z,79.87
2019-05-06T03:27:54.241Z,80.15
2019-05-06T03:28:54.251Z,80.25
2019-05-06T03:29:54.254Z,80.44
2019-05-06T03:30:56.448Z,80.53
2019-05-06T03:31:56.484Z,80.91
2019-05-06T03:33:31.494Z,80.44
2019-05-06T03:34:17.223Z,80.53
2019-05-06T03:35:15.913Z,80.44
2019-05-06T03:36:05.249Z,80.44
2019-05-06T03:36:56.148Z,80.82
2019-05-06T03:37:54.288Z,81.01
2019-05-06T03:38:54.294Z,81.20
2019-05-06T03:39:54.299Z,80.82
2019-05-06T03:40:54.306Z,80.63
2019-05-06T03:41:54.306Z,81.01
2019-05-06T03:42:54.318Z,81.20
2019-05-06T03:43:54.668Z,80.82
2019-05-06T03:44:54.329Z,80.63
2019-05-06T03:45:54.319Z,80.44
2019-05-06T03:46:54.404Z,80.63
2019-05-06T03:47:54.531Z,80.44
2019-05-06T03:48:54.348Z,80.44
2019-05-06T03:49:54.957Z,80.25
2019-05-06T03:50:56.039Z,80.25
2019-05-06T03:51:56.405Z,80.44
2019-05-06T03:52:56.458Z,80.15
2019-05-06T03:53:56.729Z,80.34
2019-05-06T03:54:54.367Z,80.15
2019-05-06T03:55:54.376Z,80.34
2019-05-06T03:56:54.375Z,80.82
2019-05-06T03:57:54.382Z,81.01
2019-05-06T03:58:54.388Z,80.34
2019-05-06T03:59:54.385Z,80.25
2019-05-06T04:00:54.393Z,80.53
2019-05-06T04:01:54.396Z,81.29
2019-05-06T04:02:54.410Z,81.01
2019-05-06T04:03:57.314Z,80.25
2019-05-06T04:04:56.758Z,80.44
2019-05-06T04:05:55.902Z,80.25
2019-05-06T04:06:54.419Z,80.34
2019-05-06T04:07:54.428Z,80.30
2019-05-06T04:08:54.429Z,80.40
2019-05-06T04:09:54.433Z,80.53
2019-05-06T04:10:54.433Z,80.72
2019-05-06T04:11:54.455Z,80.44
2019-05-06T04:12:54.450Z,80.34
2019-05-06T04:13:54.451Z,80.91
2019-05-06T04:14:54.539Z,80.82
2019-05-06T04:15:54.458Z,80.34
2019-05-06T04:16:54.464Z,80.34
2019-05-06T04:17:54.472Z,80.25
2019-05-06T04:18:54.480Z,80.44
2019-05-06T04:19:54.479Z,80.34
2019-05-06T04:20:54.484Z,80.44
2019-05-06T04:21:54.487Z,80.34
2019-05-06T04:22:54.494Z,80.63
2019-05-06T04:23:54.493Z,80.53
2019-05-06T04:24:54.500Z,80.82
2019-05-06T04:25:54.499Z,81.01
2019-05-06T04:26:54.510Z,81.20
2019-05-06T04:27:54.511Z,80.53
2019-05-06T04:28:54.553Z,80.63
2019-05-06T04:29:54.611Z,80.44
2019-05-06T04:30:55.007Z,80.53
2019-05-06T04:31:54.530Z,80.53
2019-05-06T04:32:54.535Z,80.34
2019-05-06T04:34:08.390Z,80.34
2019-05-06T04:34:54.541Z,80.53
2019-05-06T04:35:54.546Z,81.10
2019-05-06T04:36:54.554Z,80.72
2019-05-06T04:37:54.555Z,81.48
2019-05-06T04:38:54.569Z,81.20
2019-05-06T04:39:54.571Z,81.81
2019-05-06T04:40:54.574Z,81.81
2019-05-06T04:41:54.581Z,81.62
2019-05-06T04:42:54.582Z,81.05
2019-05-06T04:43:54.588Z,81.43
2019-05-06T04:44:54.592Z,81.05
2019-05-06T04:45:54.599Z,81.62
2019-05-06T04:46:54.702Z,81.71
2019-05-06T04:47:54.598Z,81.33
2019-05-06T04:48:54.616Z,80.86
2019-05-06T04:49:54.619Z,80.57
2019-05-06T04:50:54.617Z,80.48
2019-05-06T04:51:54.625Z,80.48
2019-05-06T04:52:54.627Z,80.48
2019-05-06T04:53:54.630Z,80.48
2019-05-06T04:54:54.638Z,80.95
2019-05-06T04:55:54.642Z,80.57
2019-05-06T04:56:54.645Z,80.57
2019-05-06T04:57:54.653Z,80.48
2019-05-06T04:58:54.657Z,80.76
2019-05-06T04:59:54.660Z,80.38
2019-05-06T05:00:54.663Z,80.67
2019-05-06T05:01:54.667Z,80.48
2019-05-06T05:02:55.112Z,80.76
2019-05-06T05:03:54.681Z,80.43
2019-05-06T05:04:54.681Z,80.52
2019-05-06T05:05:54.690Z,80.52
2019-05-06T05:06:54.687Z,80.99
2019-05-06T05:07:54.694Z,80.90
2019-05-06T05:08:54.702Z,80.71
2019-05-06T05:09:54.733Z,81.18
2019-05-06T05:10:54.710Z,81.37
2019-05-06T05:11:54.715Z,80.99
2019-05-06T05:12:54.719Z,80.99
2019-05-06T05:13:54.725Z,80.90
2019-05-06T05:14:54.744Z,80.71
2019-05-06T05:15:54.733Z,81.27
2019-05-06T05:16:54.739Z,81.37
2019-05-06T05:17:54.743Z,81.18
2019-05-06T05:18:54.748Z,81.75
2019-05-06T05:19:54.754Z,80.71
2019-05-06T05:20:54.762Z,80.62
2019-05-06T05:21:54.759Z,80.90
2019-05-06T05:22:54.772Z,81.27
2019-05-06T05:23:54.777Z,80.80
2019-05-06T05:24:54.783Z,80.90
2019-05-06T05:25:54.790Z,81.47
2019-05-06T05:26:54.791Z,81.47
2019-05-06T05:27:54.796Z,81.37
2019-05-06T05:28:54.800Z,81.37
2019-05-06T05:29:54.807Z,81.18
2019-05-06T05:30:54.810Z,81.56
2019-05-06T05:31:54.813Z,81.09
2019-05-06T05:32:54.821Z,81.09
2019-05-06T05:33:54.828Z,81.18
2019-05-06T05:34:54.831Z,81.56
2019-05-06T05:35:54.836Z,81.66
2019-05-06T05:36:54.845Z,81.13
2019-05-06T05:37:54.849Z,80.62
2019-05-06T05:38:54.851Z,80.08
2019-05-06T05:39:54.855Z,80.27
2019-05-06T05:40:54.867Z,79.52
2019-05-06T05:41:54.865Z,78.95
2019-05-06T05:42:54.871Z,78.38
2019-05-06T05:43:54.877Z,78.28
2019-05-06T05:44:54.882Z,78.56
2019-05-06T05:45:54.894Z,78.56
2019-05-06T05:46:54.892Z,78.19
2019-05-06T05:47:54.899Z,78.00
2019-05-06T05:48:54.903Z,77.43
2019-05-06T05:49:54.910Z,77.05
2019-05-06T05:50:54.917Z,77.14
2019-05-06T05:51:54.919Z,76.86
2019-05-06T05:52:54.924Z,77.28
2019-05-06T05:53:54.929Z,78.03
2019-05-06T05:54:55.610Z,78.42
2019-05-06T05:55:54.936Z,77.75
2019-05-06T05:56:54.943Z,76.99
2019-05-06T05:57:54.949Z,75.95
2019-05-06T05:58:54.955Z,76.04
2019-05-06T05:59:54.962Z,76.04
2019-05-06T06:00:54.968Z,76.32
2019-05-06T06:01:54.973Z,75.76
2019-05-06T06:02:54.978Z,76.42
2019-05-06T06:03:54.983Z,76.14
2019-05-06T06:04:57.579Z,76.46
2019-05-06T06:05:54.994Z,76.27
2019-05-06T06:06:55.000Z,76.46
2019-05-06T06:07:55.002Z,74.94
2019-05-06T06:08:55.009Z,73.80
2019-05-06T06:09:55.012Z,74.08
2019-05-06T06:10:55.023Z,73.80
2019-05-06T06:11:55.030Z,74.94
2019-05-06T06:12:55.032Z,76.27
2019-05-06T06:13:55.041Z,76.18
2019-05-06T06:14:56.075Z,76.18
2019-05-06T06:15:55.049Z,75.99
2019-05-06T06:16:55.057Z,75.13
2019-05-06T06:17:55.059Z,74.37
2019-05-06T06:18:55.068Z,74.85
2019-05-06T06:19:55.078Z,75.04
2019-05-06T06:20:55.078Z,74.85
2019-05-06T06:21:55.087Z,74.75
2019-05-06T06:22:55.092Z,75.60
2019-05-06T06:23:55.096Z,75.23
2019-05-06T06:24:55.098Z,75.51
2019-05-06T06:25:55.103Z,75.70
2019-05-06T06:26:55.105Z,76.65
2019-05-06T06:27:55.117Z,77.31
2019-05-06T06:28:55.121Z,76.37
2019-05-06T06:29:55.128Z,75.60
2019-05-06T06:30:55.135Z,75.60
2019-05-06T06:31:55.143Z,75.51
2019-05-06T06:32:55.146Z,76.27
2019-05-06T06:33:55.149Z,77.89
2019-05-06T06:35:07.410Z,77.89
2019-05-06T06:35:55.161Z,77.89
2019-05-06T06:36:55.163Z,77.79
2019-05-06T06:37:55.182Z,76.99
2019-05-06T06:38:55.182Z,76.80
2019-05-06T06:40:02.722Z,78.03
2019-05-06T06:41:59.181Z,78.23
2019-05-06T06:42:59.172Z,77.75
2019-05-06T06:45:03.631Z,77.70
2019-05-06T06:46:03.171Z,78.08
2019-05-06T06:48:07.645Z,77.70
2019-05-06T06:49:07.654Z,77.89
2019-05-06T06:51:03.298Z,77.79
2019-05-06T06:52:02.716Z,77.22
2019-05-06T06:53:02.855Z,77.22
2019-05-06T06:54:02.465Z,76.18
2019-05-06T06:55:02.377Z,76.08
2019-05-06T06:56:02.027Z,76.08
2019-05-06T06:57:06.125Z,75.99
2019-05-06T06:58:02.547Z,75.64
2019-05-06T06:59:02.604Z,76.40
2019-05-06T07:00:00.619Z,76.31
2019-05-06T07:01:07.790Z,77.26
2019-05-06T07:03:04.606Z,75.55
2019-05-06T07:04:10.297Z,75.74
2019-05-06T07:05:04.603Z,75.26
2019-05-06T07:06:04.607Z,75.55
2019-05-06T07:07:04.615Z,75.93
2019-05-06T07:08:04.622Z,76.03
2019-05-06T07:09:04.631Z,75.45
2019-05-06T07:10:04.631Z,75.45
2019-05-06T07:11:04.635Z,75.55
2019-05-06T07:12:04.674Z,76.40
2019-05-06T07:13:04.661Z,75.84
2019-05-06T07:14:04.660Z,75.26
2019-05-06T07:15:04.662Z,75.40
2019-05-06T07:16:04.668Z,76.06
2019-05-06T07:17:04.665Z,76.35
2019-05-06T07:18:04.674Z,76.25
2019-05-06T07:19:04.682Z,75.21
2019-05-06T07:20:04.688Z,75.49
2019-05-06T07:21:05.971Z,76.06
2019-05-06T07:22:06.804Z,75.78
2019-05-06T07:23:04.704Z,75.78
2019-05-06T07:24:04.712Z,75.59
2019-05-06T07:25:04.722Z,75.49
2019-05-06T07:26:04.722Z,76.35
2019-05-06T07:27:04.729Z,75.53
2019-05-06T07:28:04.732Z,74.16
2019-05-06T07:29:16.882Z,74.20
2019-05-06T07:30:04.747Z,74.39
2019-05-06T07:31:17.572Z,74.20
2019-05-06T07:32:04.759Z,74.87
2019-05-06T07:33:04.775Z,75.15
2019-05-06T07:34:04.764Z,75.34
2019-05-06T07:35:06.292Z,74.87
2019-05-06T07:36:04.778Z,75.34
2019-05-06T07:37:04.793Z,74.67
2019-05-06T07:38:04.808Z,74.77
2019-05-06T07:39:04.800Z,72.49
2019-05-06T07:40:04.807Z,71.82
2019-05-06T07:41:05.114Z,71.15
2019-05-06T07:42:04.820Z,71.19
2019-05-06T07:43:04.824Z,71.28
2019-05-06T07:44:04.828Z,71.95
2019-05-06T07:45:06.544Z,71.76
2019-05-06T07:46:04.841Z,73.00
2019-05-06T07:47:04.848Z,73.85
2019-05-06T07:48:04.858Z,73.00
2019-05-06T07:49:04.861Z,71.86
2019-05-06T07:50:04.864Z,72.05
2019-05-06T07:51:04.870Z,72.42
2019-05-06T07:52:04.877Z,72.90
2019-05-06T07:53:04.887Z,71.57
2019-05-06T07:54:04.892Z,71.09
2019-05-06T07:55:04.899Z,71.42
2019-05-06T07:56:04.903Z,72.17
2019-05-06T07:57:04.907Z,72.37
2019-05-06T07:58:04.915Z,71.22
2019-05-06T07:59:04.922Z,70.27
2019-05-06T08:00:04.931Z,70.65
2019-05-06T08:01:04.929Z,69.42
2019-05-06T08:02:04.946Z,70.08
2019-05-06T08:03:04.949Z,69.23
2019-05-06T08:04:04.955Z,68.94
2019-05-06T08:05:07.538Z,70.08
2019-05-06T08:06:04.966Z,69.99
2019-05-06T08:07:04.979Z,67.22
2019-05-06T08:08:04.982Z,67.61
2019-05-06T08:09:04.987Z,66.94
2019-05-06T08:10:04.992Z,66.94
2019-05-06T08:11:04.998Z,68.27
2019-05-06T08:12:05.006Z,67.16
2019-05-06T08:13:05.011Z,65.07
2019-05-06T08:14:05.020Z,64.78
2019-05-06T08:15:05.961Z,65.64
2019-05-06T08:16:05.033Z,64.87
2019-05-06T08:17:05.041Z,64.21
2019-05-06T08:18:05.052Z,62.88
2019-05-06T08:19:05.053Z,62.97
2019-05-06T08:20:05.059Z,62.97
2019-05-06T08:21:05.065Z,62.78
2019-05-06T08:22:05.077Z,61.93
2019-05-06T08:23:05.080Z,62.88
2019-05-06T08:24:05.091Z,63.07
2019-05-06T08:25:05.097Z,63.17
2019-05-06T08:26:12.017Z,63.73
2019-05-06T08:27:05.108Z,64.31
2019-05-06T08:28:05.118Z,65.92
2019-05-06T08:29:05.122Z,64.02
2019-05-06T08:30:05.131Z,62.49
2019-05-06T08:31:05.140Z,65.36
2019-05-06T08:32:05.143Z,65.16
2019-05-06T08:33:05.150Z,63.42
2019-05-06T08:34:05.155Z,61.32
2019-05-06T08:35:05.163Z,61.42
2019-05-06T08:36:11.593Z,61.42
2019-05-06T08:37:05.175Z,60.94
2019-05-06T08:38:05.199Z,61.32
2019-05-06T08:39:05.187Z,62.27
2019-05-06T08:40:05.199Z,63.23
2019-05-06T08:41:05.205Z,63.01
2019-05-06T08:42:05.213Z,63.76
2019-05-06T08:43:05.218Z,63.13
2019-05-06T08:44:05.227Z,63.04
2019-05-06T08:45:07.135Z,64.94
2019-05-06T08:46:05.237Z,66.85
2019-05-06T08:47:05.246Z,66.56
2019-05-06T08:48:05.250Z,63.89
2019-05-06T08:49:05.261Z,62.40
2019-05-06T08:50:05.279Z,63.54
2019-05-06T08:51:07.241Z,65.64
2019-05-06T08:52:05.285Z,65.83
2019-05-06T08:53:05.323Z,66.91
2019-05-06T08:54:05.296Z,67.29
2019-05-06T08:55:05.301Z,67.68
2019-05-06T08:56:05.307Z,68.34
2019-05-06T08:57:05.314Z,68.15
2019-05-06T08:58:05.322Z,66.94
2019-05-06T08:59:05.331Z,64.65
2019-05-06T09:00:05.335Z,64.09
2019-05-06T09:01:05.343Z,64.18
2019-05-06T09:02:05.351Z,62.94
2019-05-06T09:03:05.363Z,61.99
2019-05-06T09:04:12.221Z,62.30
2019-05-06T09:05:05.374Z,63.07
2019-05-06T09:06:07.463Z,63.73
2019-05-06T09:07:05.383Z,63.35
2019-05-06T09:08:05.394Z,62.30
2019-05-06T09:09:05.411Z,63.07
2019-05-06T09:10:05.410Z,63.73
2019-05-06T09:11:05.414Z,62.49
2019-05-06T09:12:05.421Z,63.54
2019-05-06T09:13:05.431Z,64.12
2019-05-06T09:14:05.442Z,59.82
2019-05-06T09:15:05.446Z,57.63
2019-05-06T09:16:05.453Z,57.63
2019-05-06T09:17:05.461Z,59.25
2019-05-06T09:18:05.467Z,61.07
2019-05-06T09:19:05.477Z,62.11
2019-05-06T09:20:05.485Z,61.44
2019-05-06T09:21:05.495Z,59.92
2019-05-06T09:22:05.504Z,58.97
2019-05-06T09:23:05.510Z,61.16
2019-05-06T09:24:05.515Z,59.82
2019-05-06T09:25:05.518Z,59.99
2019-05-06T09:26:05.529Z,58.84
2019-05-06T09:27:05.535Z,60.75
2019-05-06T09:28:05.545Z,64.47
2019-05-06T09:29:05.551Z,67.14
2019-05-06T09:30:05.558Z,67.61
2019-05-06T09:31:05.568Z,66.94
2019-05-06T09:32:05.574Z,67.14
2019-05-06T09:33:05.588Z,66.88
2019-05-06T09:34:05.594Z,67.46
2019-05-06T09:35:05.604Z,65.83
2019-05-06T09:36:05.606Z,65.07
2019-05-06T09:37:05.612Z,63.07
2019-05-06T09:38:05.623Z,61.54
2019-05-06T09:39:05.630Z,60.39
2019-05-06T09:40:05.644Z,60.49
2019-05-06T09:41:05.642Z,59.16
2019-05-06T09:42:05.651Z,58.58
2019-05-06T09:43:05.661Z,57.60
2019-05-06T09:44:05.667Z,56.96
2019-05-06T09:45:05.673Z,55.88
2019-05-06T09:46:05.684Z,55.98
2019-05-06T09:47:05.689Z,58.94
2019-05-06T09:48:05.736Z,57.72
2019-05-06T09:49:05.704Z,59.92
2019-05-06T09:50:05.714Z,62.11
2019-05-06T09:51:05.720Z,62.88
2019-05-06T09:52:05.727Z,63.35
2019-05-06T09:53:05.733Z,63.07
2019-05-06T09:54:05.744Z,63.92
2019-05-06T09:55:05.748Z,62.49
2019-05-06T09:56:05.755Z,62.97
2019-05-06T09:57:05.766Z,60.39
2019-05-06T09:58:05.769Z,59.44
2019-05-06T09:59:05.781Z,61.35
2019-05-06T10:00:05.793Z,61.35
2019-05-06T10:01:05.794Z,63.26
2019-05-06T10:02:05.818Z,64.21
2019-05-06T10:03:05.823Z,63.83
2019-05-06T10:04:05.824Z,64.12
2019-05-06T10:05:05.830Z,64.59
2019-05-06T10:06:05.835Z,64.40
2019-05-06T10:07:05.847Z,65.74
2019-05-06T10:08:05.852Z,64.50
2019-05-06T10:09:05.856Z,64.05
2019-05-06T10:10:05.868Z,64.81
2019-05-06T10:11:05.870Z,63.86
2019-05-06T10:12:05.874Z,62.05
2019-05-06T10:13:05.887Z,61.38
2019-05-06T10:14:05.898Z,63.29
2019-05-06T10:15:05.904Z,63.20
2019-05-06T10:16:05.914Z,63.96
2019-05-06T10:17:05.923Z,61.86
2019-05-06T10:18:05.928Z,62.43
2019-05-06T10:19:05.936Z,60.33
2019-05-06T10:20:05.947Z,59.19
2019-05-06T10:21:05.950Z,57.65
2019-05-06T10:22:05.967Z,58.14
2019-05-06T10:23:05.970Z,60.04
2019-05-06T10:24:05.975Z,58.23
2019-05-06T10:25:05.986Z,58.23
2019-05-06T10:26:05.996Z,57.21
2019-05-06T10:27:06.000Z,57.59
2019-05-06T10:28:06.007Z,56.35
2019-05-06T10:29:06.014Z,55.18
2019-05-06T10:30:06.037Z,55.65
2019-05-06T10:31:06.037Z,57.43
2019-05-06T10:32:06.045Z,59.19
2019-05-06T10:33:06.063Z,61.47
2019-05-06T10:34:06.055Z,62.15
2019-05-06T10:35:06.064Z,61.86
2019-05-06T10:36:06.075Z,63.29
2019-05-06T10:37:17.460Z,62.91
2019-05-06T10:38:06.086Z,60.71
2019-05-06T10:39:06.097Z,59.98
2019-05-06T10:40:06.110Z,59.22
2019-05-06T10:41:07.695Z,60.27
2019-05-06T10:42:06.122Z,59.31
2019-05-06T10:43:06.130Z,57.59
2019-05-06T10:44:06.137Z,58.07
2019-05-06T10:45:06.149Z,57.59
2019-05-06T10:46:06.157Z,58.36
2019-05-06T10:47:06.165Z,58.67
2019-05-06T10:48:06.168Z,57.78
2019-05-06T10:49:06.177Z,55.27
2019-05-06T10:50:06.186Z,55.94
2019-05-06T10:51:06.196Z,58.51
2019-05-06T10:52:06.203Z,59.78
2019-05-06T10:53:06.216Z,61.79
2019-05-06T10:54:06.223Z,61.41
2019-05-06T10:55:06.231Z,61.41
2019-05-06T10:56:06.239Z,59.78
2019-05-06T10:57:06.246Z,57.59
2019-05-06T10:58:06.255Z,56.89
2019-05-06T10:59:06.263Z,55.08
2019-05-06T11:00:06.282Z,53.08
2019-05-06T11:01:06.277Z,54.48
2019-05-06T11:02:06.298Z,54.96
2019-05-06T11:03:06.294Z,56.20
2019-05-06T11:04:06.302Z,56.48
2019-05-06T11:05:06.309Z,57.82
2019-05-06T11:06:06.320Z,58.99
2019-05-06T11:07:06.327Z,58.51
2019-05-06T11:08:06.337Z,57.65
2019-05-06T11:09:06.344Z,58.99
2019-05-06T11:10:06.349Z,59.38
2019-05-06T11:11:15.141Z,59.85
2019-05-06T11:12:06.368Z,57.18
2019-05-06T11:13:06.371Z,58.23
2019-05-06T11:14:06.385Z,57.37
2019-05-06T11:15:06.390Z,56.89
2019-05-06T11:16:06.405Z,57.40
2019-05-06T11:17:06.409Z,58.07
2019-05-06T11:18:06.414Z,59.69
2019-05-06T11:19:06.426Z,56.54
2019-05-06T11:20:08.778Z,53.65
2019-05-06T11:21:06.439Z,55.58
2019-05-06T11:22:06.453Z,55.84
2019-05-06T11:23:06.455Z,54.34
2019-05-06T11:24:06.502Z,51.93
2019-05-06T11:25:06.474Z,51.95
2019-05-06T11:26:06.485Z,53.10
2019-05-06T11:27:06.486Z,51.95
2019-05-06T11:28:06.495Z,51.57
2019-05-06T11:29:06.504Z,51.67
2019-05-06T11:30:06.517Z,51.38
2019-05-06T11:31:09.175Z,50.55
2019-05-06T11:32:06.530Z,49.88
2019-05-06T11:33:06.538Z,49.69
2019-05-06T11:34:06.545Z,51.03
2019-05-06T11:35:06.553Z,49.69
2019-05-06T11:36:06.570Z,48.83
2019-05-06T11:37:06.575Z,47.78
2019-05-06T11:38:06.581Z,48.75
2019-05-06T11:39:06.586Z,50.38
2019-05-06T11:40:06.597Z,49.43
2019-05-06T11:41:06.602Z,51.15
2019-05-06T11:42:25.083Z,51.62
2019-05-06T11:43:06.624Z,48.57
2019-05-06T11:44:09.051Z,47.13
2019-05-06T11:45:06.639Z,47.20
2019-05-06T11:46:06.647Z,46.82
2019-05-06T11:47:06.657Z,47.01
2019-05-06T11:48:06.663Z,46.63
2019-05-06T11:49:06.672Z,48.25
2019-05-06T11:50:06.684Z,51.03
2019-05-06T11:51:06.688Z,48.99
2019-05-06T11:52:06.699Z,50.71
2019-05-06T11:53:06.708Z,53.00
2019-05-06T11:54:16.530Z,52.43
2019-05-06T11:55:06.721Z,50.52
2019-05-06T11:56:06.729Z,50.12
2019-05-06T11:57:06.738Z,53.20
2019-05-06T11:58:06.752Z,56.54
2019-05-06T11:59:06.753Z,57.50
2019-05-06T12:00:06.766Z,58.26
2019-05-06T12:01:06.772Z,56.92
2019-05-06T12:02:06.781Z,57.28
2019-05-06T12:03:06.786Z,56.32
2019-05-06T12:04:06.804Z,54.41
2019-05-06T12:05:06.808Z,57.18
2019-05-06T12:06:06.813Z,58.33
2019-05-06T12:07:11.454Z,58.14
2019-05-06T12:08:08.212Z,58.14
2019-05-06T12:09:06.840Z,59.19
2019-05-06T12:10:06.846Z,58.70
2019-05-06T12:11:06.857Z,60.04
2019-05-06T12:12:06.862Z,59.98
2019-05-06T12:13:06.878Z,60.74
2019-05-06T12:14:06.875Z,60.55
2019-05-06T12:15:07.326Z,60.93
2019-05-06T12:16:06.893Z,58.04
2019-05-06T12:17:06.899Z,55.58
2019-05-06T12:18:06.906Z,54.22
2019-05-06T12:19:06.919Z,54.60
2019-05-06T12:20:06.921Z,55.94
2019-05-06T12:21:11.324Z,57.75
2019-05-06T12:22:06.946Z,58.14
2019-05-06T12:23:06.945Z,56.13
2019-05-06T12:24:06.957Z,56.73
2019-05-06T12:25:11.169Z,58.07
2019-05-06T12:26:06.975Z,57.56
2019-05-06T12:27:06.980Z,54.89
2019-05-06T12:28:06.989Z,54.22
2019-05-06T12:29:07.014Z,56.32
2019-05-06T12:30:07.004Z,58.04
2019-05-06T12:31:07.012Z,58.04
2019-05-06T12:32:07.022Z,58.70
2019-05-06T12:33:07.030Z,59.98
2019-05-06T12:34:07.034Z,59.85
2019-05-06T12:35:07.044Z,58.90
2019-05-06T12:36:07.048Z,60.04
2019-05-06T12:37:07.062Z,57.56
2019-05-06T12:38:23.972Z,55.75
2019-05-06T12:39:07.079Z,55.55
2019-05-06T12:40:07.077Z,56.13
2019-05-06T12:41:07.091Z,56.67
2019-05-06T12:42:07.101Z,57.24
2019-05-06T12:43:07.110Z,58.87
2019-05-06T12:44:07.112Z,61.25
2019-05-06T12:45:07.123Z,62.30
2019-05-06T12:46:07.130Z,60.21
2019-05-06T12:47:07.135Z,59.73
2019-05-06T12:48:07.147Z,61.16
2019-05-06T12:49:07.151Z,62.88
2019-05-06T12:50:07.161Z,62.40
2019-05-06T12:51:07.170Z,61.76
2019-05-06T12:52:07.175Z,63.10
2019-05-06T12:53:07.183Z,63.57
2019-05-06T12:54:07.196Z,63.67
2019-05-06T12:55:20.382Z,63.57
2019-05-06T12:56:07.206Z,62.62
2019-05-06T12:57:07.216Z,63.29
2019-05-06T12:58:07.225Z,63.45